sensor_id;sensor_type;location;lat;lon;timestamp;pressure;altitude;pressure_sealevel;temperature;humidity
48563;BME280;34981;49.104;11.396;2023-03-22T00:01:07;99445.97;;;8.91;100.00
48563;BME280;34981;49.104;11.396;2023-03-22T00:03:34;99451.16;;;8.84;100.00
48563;BME280;34981;49.104;11.396;2023-03-22T00:06:02;99447.84;;;8.74;100.00
48563;BME280;34981;49.104;11.396;2023-03-22T00:08:29;99453.56;;;8.63;100.00
48563;BME280;34981;49.104;11.396;2023-03-22T00:10:56;99459.44;;;8.67;100.00
48563;BME280;34981;49.104;11.396;2023-03-22T00:13:23;99469.84;;;8.62;100.00
48563;BME280;34981;49.104;11.396;2023-03-22T00:15:50;99472.88;;;8.58;100.00
48563;BME280;34981;49.104;11.396;2023-03-22T00:18:17;99474.88;;;8.56;100.00
48563;BME280;34981;49.104;11.396;2023-03-22T00:20:45;99478.22;;;8.58;100.00
48563;BME280;34981;49.104;11.396;2023-03-22T00:23:12;99492.78;;;8.64;100.00
48563;BME280;34981;49.104;11.396;2023-03-22T00:25:40;99491.31;;;8.62;100.00
48563;BME280;34981;49.104;11.396;2023-03-22T00:28:07;99484.59;;;8.57;100.00
48563;BME280;34981;49.104;11.396;2023-03-22T00:30:34;99486.59;;;8.55;100.00
48563;BME280;34981;49.104;11.396;2023-03-22T00:33:01;99493.66;;;8.56;100.00
48563;BME280;34981;49.104;11.396;2023-03-22T00:35:28;99480.25;;;8.56;100.00
48563;BME280;34981;49.104;11.396;2023-03-22T00:37:55;99483.75;;;8.57;100.00
48563;BME280;34981;49.104;11.396;2023-03-22T00:40:22;99470.19;;;8.50;100.00
48563;BME280;34981;49.104;11.396;2023-03-22T00:42:49;99475.88;;;8.55;100.00
48563;BME280;34981;49.104;11.396;2023-03-22T00:45:17;99468.19;;;8.52;100.00
48563;BME280;34981;49.104;11.396;2023-03-22T00:47:44;99466.00;;;8.48;100.00
48563;BME280;34981;49.104;11.396;2023-03-22T00:50:11;99460.47;;;8.49;100.00
48563;BME280;34981;49.104;11.396;2023-03-22T00:52:38;99462.50;;;8.47;100.00
48563;BME280;34981;49.104;11.396;2023-03-22T00:55:06;99459.00;;;8.39;100.00
48563;BME280;34981;49.104;11.396;2023-03-22T00:57:33;99459.84;;;8.39;100.00
48563;BME280;34981;49.104;11.396;2023-03-22T01:00:01;99462.16;;;8.42;100.00
48563;BME280;34981;49.104;11.396;2023-03-22T01:02:44;99457.47;;;8.44;100.00
48563;BME280;34981;49.104;11.396;2023-03-22T01:05:16;99469.38;;;8.50;100.00
48563;BME280;34981;49.104;11.396;2023-03-22T01:07:43;99469.88;;;8.53;100.00
48563;BME280;34981;49.104;11.396;2023-03-22T01:10:11;99468.19;;;8.52;100.00
48563;BME280;34981;49.104;11.396;2023-03-22T01:12:38;99473.56;;;8.52;100.00
48563;BME280;34981;49.104;11.396;2023-03-22T01:15:05;99486.28;;;8.50;100.00
48563;BME280;34981;49.104;11.396;2023-03-22T01:17:33;99474.88;;;8.48;100.00
48563;BME280;34981;49.104;11.396;2023-03-22T01:20:00;99481.94;;;8.41;100.00
48563;BME280;34981;49.104;11.396;2023-03-22T01:22:28;99465.53;;;8.36;100.00
48563;BME280;34981;49.104;11.396;2023-03-22T01:24:55;99470.69;;;8.30;100.00
48563;BME280;34981;49.104;11.396;2023-03-22T01:27:22;99471.22;;;8.25;100.00
48563;BME280;34981;49.104;11.396;2023-03-22T01:29:49;99469.19;;;8.27;100.00
48563;BME280;34981;49.104;11.396;2023-03-22T01:32:16;99480.28;;;8.32;100.00
48563;BME280;34981;49.104;11.396;2023-03-22T01:34:44;99482.63;;;8.35;100.00
48563;BME280;34981;49.104;11.396;2023-03-22T01:37:11;99479.63;;;8.38;100.00
48563;BME280;34981;49.104;11.396;2023-03-22T01:39:43;99474.41;;;8.37;100.00
48563;BME280;34981;49.104;11.396;2023-03-22T01:42:14;99459.69;;;8.33;100.00
48563;BME280;34981;49.104;11.396;2023-03-22T01:44:42;99462.53;;;8.31;100.00
48563;BME280;34981;49.104;11.396;2023-03-22T01:47:11;99460.81;;;8.30;100.00
48563;BME280;34981;49.104;11.396;2023-03-22T01:49:38;99459.69;;;8.33;100.00
48563;BME280;34981;49.104;11.396;2023-03-22T01:52:08;99460.81;;;8.30;100.00
48563;BME280;34981;49.104;11.396;2023-03-22T01:54:48;99448.13;;;8.32;100.00
48563;BME280;34981;49.104;11.396;2023-03-22T01:57:39;99436.69;;;8.30;100.00
48563;BME280;34981;49.104;11.396;2023-03-22T02:00:12;99437.69;;;8.29;100.00
48563;BME280;34981;49.104;11.396;2023-03-22T02:03:03;99437.69;;;8.29;100.00
48563;BME280;34981;49.104;11.396;2023-03-22T02:05:36;99458.13;;;8.30;100.00
48563;BME280;34981;49.104;11.396;2023-03-22T02:08:03;99465.69;;;8.35;100.00
48563;BME280;34981;49.104;11.396;2023-03-22T02:10:48;99461.34;;;8.34;100.00
48563;BME280;34981;49.104;11.396;2023-03-22T02:13:23;99462.81;;;8.28;100.00
48563;BME280;34981;49.104;11.396;2023-03-22T02:21:31;99458.13;;;8.30;100.00
48563;BME280;34981;49.104;11.396;2023-03-22T02:24:08;99446.06;;;8.26;100.00
48563;BME280;34981;49.104;11.396;2023-03-22T02:29:15;99450.09;;;8.30;100.00
48563;BME280;34981;49.104;11.396;2023-03-22T02:37:22;99433.88;;;8.24;100.00
48563;BME280;34981;49.104;11.396;2023-03-22T02:40:02;99425.84;;;8.07;100.00
48563;BME280;34981;49.104;11.396;2023-03-22T02:45:16;99435.38;;;8.18;100.00
48563;BME280;34981;49.104;11.396;2023-03-22T02:50:34;99430.69;;;8.12;100.00
48563;BME280;34981;49.104;11.396;2023-03-22T02:55:33;99425.31;;;8.04;100.00
48563;BME280;34981;49.104;11.396;2023-03-22T02:58:20;99423.84;;;8.01;100.00
48563;BME280;34981;49.104;11.396;2023-03-22T03:00:51;99408.59;;;7.86;100.00
48563;BME280;34981;49.104;11.396;2023-03-22T03:03:20;99423.66;;;7.87;100.00
48563;BME280;34981;49.104;11.396;2023-03-22T03:05:53;99415.31;;;7.81;100.00
48563;BME280;34981;49.104;11.396;2023-03-22T03:08:22;99399.41;;;7.72;100.00
48563;BME280;34981;49.104;11.396;2023-03-22T03:10:51;99399.38;;;7.64;100.00
48563;BME280;34981;49.104;11.396;2023-03-22T03:13:19;99409.44;;;7.70;100.00
48563;BME280;34981;49.104;11.396;2023-03-22T03:15:51;99391.34;;;7.64;100.00
48563;BME280;34981;49.104;11.396;2023-03-22T03:23:53;99381.47;;;7.56;100.00
48563;BME280;34981;49.104;11.396;2023-03-22T03:26:31;99371.44;;;7.42;100.00
48563;BME280;34981;49.104;11.396;2023-03-22T03:31:39;99372.25;;;7.26;100.00
48563;BME280;34981;49.104;11.396;2023-03-22T03:36:41;99373.75;;;7.29;100.00
48563;BME280;34981;49.104;11.396;2023-03-22T03:39:11;99383.47;;;7.38;100.00
48563;BME280;34981;49.104;11.396;2023-03-22T03:41:39;99388.34;;;7.42;100.00
48563;BME280;34981;49.104;11.396;2023-03-22T03:44:08;99395.69;;;7.40;100.00
48563;BME280;34981;49.104;11.396;2023-03-22T03:46:35;99389.84;;;7.37;100.00
48563;BME280;34981;49.104;11.396;2023-03-22T03:49:03;99385.28;;;7.21;100.00
48563;BME280;34981;49.104;11.396;2023-03-22T03:51:31;99370.84;;;6.98;100.00
48563;BME280;34981;49.104;11.396;2023-03-22T03:53:59;99376.31;;;6.88;100.00
48563;BME280;34981;49.104;11.396;2023-03-22T03:56:26;99377.13;;;6.81;100.00
48563;BME280;34981;49.104;11.396;2023-03-22T03:58:54;99418.03;;;7.07;100.00
48563;BME280;34981;49.104;11.396;2023-03-22T04:01:21;99395.00;;;6.80;100.00
48563;BME280;34981;49.104;11.396;2023-03-22T04:04:09;99377.91;;;6.57;100.00
48563;BME280;34981;49.104;11.396;2023-03-22T04:06:46;99400.19;;;6.74;100.00
48563;BME280;34981;49.104;11.396;2023-03-22T04:09:17;99420.13;;;6.87;100.00
48563;BME280;34981;49.104;11.396;2023-03-22T04:11:49;99410.03;;;6.73;100.00
48563;BME280;34981;49.104;11.396;2023-03-22T04:14:17;99429.16;;;6.94;100.00
48563;BME280;34981;49.104;11.396;2023-03-22T04:16:47;99440.28;;;7.08;100.00
48563;BME280;34981;49.104;11.396;2023-03-22T04:19:18;99438.91;;;7.03;100.00
48563;BME280;34981;49.104;11.396;2023-03-22T04:21:45;99416.38;;;6.72;100.00
48563;BME280;34981;49.104;11.396;2023-03-22T04:24:12;99425.72;;;6.68;100.00
48563;BME280;34981;49.104;11.396;2023-03-22T04:26:41;99422.22;;;6.68;100.00
48563;BME280;34981;49.104;11.396;2023-03-22T04:29:22;99413.66;;;6.56;100.00
48563;BME280;34981;49.104;11.396;2023-03-22T04:31:56;99415.31;;;6.57;100.00
48563;BME280;34981;49.104;11.396;2023-03-22T04:34:35;99417.31;;;6.55;100.00
48563;BME280;34981;49.104;11.396;2023-03-22T04:37:08;99439.81;;;6.78;100.00
48563;BME280;34981;49.104;11.396;2023-03-22T04:39:37;99438.84;;;6.87;100.00
48563;BME280;34981;49.104;11.396;2023-03-22T04:42:23;99413.84;;;6.62;100.00
48563;BME280;34981;49.104;11.396;2023-03-22T04:45:00;99421.09;;;6.44;100.00
48563;BME280;34981;49.104;11.396;2023-03-22T04:47:30;99412.81;;;6.30;100.00
48563;BME280;34981;49.104;11.396;2023-03-22T04:49:57;99437.53;;;6.32;100.00
48563;BME280;34981;49.104;11.396;2023-03-22T04:52:26;99421.09;;;6.18;100.00
48563;BME280;34981;49.104;11.396;2023-03-22T04:54:55;99430.16;;;6.25;100.00
48563;BME280;34981;49.104;11.396;2023-03-22T04:57:22;99437.91;;;6.37;100.00
48563;BME280;34981;49.104;11.396;2023-03-22T04:59:50;99439.97;;;6.43;100.00
48563;BME280;34981;49.104;11.396;2023-03-22T05:02:17;99430.84;;;6.28;100.00
48563;BME280;34981;49.104;11.396;2023-03-22T05:04:46;99436.41;;;6.34;100.00
48563;BME280;34981;49.104;11.396;2023-03-22T05:07:39;99431.56;;;6.38;100.00
48563;BME280;34981;49.104;11.396;2023-03-22T05:10:08;99446.81;;;6.45;100.00
48563;BME280;34981;49.104;11.396;2023-03-22T05:12:36;99442.66;;;6.43;100.00
48563;BME280;34981;49.104;11.396;2023-03-22T05:15:16;99442.84;;;6.49;100.00
48563;BME280;34981;49.104;11.396;2023-03-22T05:17:44;99451.72;;;6.50;100.00
48563;BME280;34981;49.104;11.396;2023-03-22T05:20:11;99451.56;;;6.59;100.00
48563;BME280;34981;49.104;11.396;2023-03-22T05:22:41;99464.47;;;6.64;100.00
48563;BME280;34981;49.104;11.396;2023-03-22T05:25:10;99454.72;;;6.55;100.00
48563;BME280;34981;49.104;11.396;2023-03-22T05:27:41;99450.66;;;6.43;100.00
48563;BME280;34981;49.104;11.396;2023-03-22T05:30:34;99438.91;;;6.36;100.00
48563;BME280;34981;49.104;11.396;2023-03-22T05:33:14;99460.09;;;6.55;100.00
48563;BME280;34981;49.104;11.396;2023-03-22T05:35:44;99463.44;;;6.57;100.00
48563;BME280;34981;49.104;11.396;2023-03-22T05:38:12;99466.47;;;6.62;100.00
48563;BME280;34981;49.104;11.396;2023-03-22T05:40:44;99464.75;;;6.53;100.00
48563;BME280;34981;49.104;11.396;2023-03-22T05:43:11;99456.31;;;6.40;100.00
48563;BME280;34981;49.104;11.396;2023-03-22T05:45:42;99477.09;;;6.54;100.00
48563;BME280;34981;49.104;11.396;2023-03-22T05:48:28;99463.06;;;6.52;100.00
48563;BME280;34981;49.104;11.396;2023-03-22T05:50:55;99476.13;;;6.55;100.00
48563;BME280;34981;49.104;11.396;2023-03-22T05:53:22;99494.53;;;6.66;100.00
48563;BME280;34981;49.104;11.396;2023-03-22T05:55:57;99504.66;;;6.80;100.00
48563;BME280;34981;49.104;11.396;2023-03-22T05:58:29;99533.31;;;6.96;100.00
48563;BME280;34981;49.104;11.396;2023-03-22T06:01:03;99537.94;;;7.12;100.00
48563;BME280;34981;49.104;11.396;2023-03-22T06:03:54;99534.63;;;7.26;100.00
48563;BME280;34981;49.104;11.396;2023-03-22T06:06:34;99537.28;;;7.18;100.00
48563;BME280;34981;49.104;11.396;2023-03-22T06:09:12;99514.69;;;7.12;100.00
48563;BME280;34981;49.104;11.396;2023-03-22T06:11:48;99514.19;;;7.17;100.00
48563;BME280;34981;49.104;11.396;2023-03-22T06:14:16;99520.06;;;7.20;100.00
48563;BME280;34981;49.104;11.396;2023-03-22T06:17:02;99507.56;;;7.29;100.00
48563;BME280;34981;49.104;11.396;2023-03-22T06:19:29;99515.63;;;7.37;100.00
48563;BME280;34981;49.104;11.396;2023-03-22T06:22:00;99515.81;;;7.43;100.00
48563;BME280;34981;49.104;11.396;2023-03-22T06:24:27;99525.75;;;7.59;100.00
48563;BME280;34981;49.104;11.396;2023-03-22T06:26:55;99539.81;;;7.77;100.00
48563;BME280;34981;49.104;11.396;2023-03-22T06:29:22;99525.94;;;7.82;100.00
48563;BME280;34981;49.104;11.396;2023-03-22T06:31:52;99527.47;;;7.85;100.00
48563;BME280;34981;49.104;11.396;2023-03-22T06:34:19;99525.31;;;7.88;100.00
48563;BME280;34981;49.104;11.396;2023-03-22T06:36:47;99524.97;;;7.99;100.00
48563;BME280;34981;49.104;11.396;2023-03-22T06:39:24;99535.19;;;8.12;100.00
48563;BME280;34981;49.104;11.396;2023-03-22T06:41:52;99536.56;;;8.24;100.00
48563;BME280;34981;49.104;11.396;2023-03-22T06:44:20;99545.97;;;8.44;100.00
48563;BME280;34981;49.104;11.396;2023-03-22T06:46:51;99552.97;;;8.70;100.00
48563;BME280;34981;49.104;11.396;2023-03-22T06:49:41;99545.19;;;8.99;100.00
48563;BME280;34981;49.104;11.396;2023-03-22T06:52:14;99567.88;;;9.44;100.00
48563;BME280;34981;49.104;11.396;2023-03-22T06:54:41;99593.00;;;9.90;100.00
48563;BME280;34981;49.104;11.396;2023-03-22T06:57:09;99600.28;;;10.43;100.00
48563;BME280;34981;49.104;11.396;2023-03-22T06:59:36;99602.44;;;10.85;100.00
48563;BME280;34981;49.104;11.396;2023-03-22T07:02:03;99582.34;;;10.96;100.00
48563;BME280;34981;49.104;11.396;2023-03-22T07:04:31;99604.94;;;11.39;100.00
48563;BME280;34981;49.104;11.396;2023-03-22T07:06:59;99599.06;;;11.50;100.00
48563;BME280;34981;49.104;11.396;2023-03-22T07:09:27;99559.50;;;11.21;100.00
48563;BME280;34981;49.104;11.396;2023-03-22T07:11:57;99568.41;;;11.07;100.00
48563;BME280;34981;49.104;11.396;2023-03-22T07:14:24;99561.63;;;11.11;100.00
48563;BME280;34981;49.104;11.396;2023-03-22T07:16:59;99582.53;;;11.38;100.00
48563;BME280;34981;49.104;11.396;2023-03-22T07:19:28;99591.22;;;11.69;100.00
48563;BME280;34981;49.104;11.396;2023-03-22T07:21:57;99583.63;;;11.88;100.00
48563;BME280;34981;49.104;11.396;2023-03-22T07:24:25;99574.50;;;11.89;100.00
48563;BME280;34981;49.104;11.396;2023-03-22T07:26:52;99583.91;;;12.14;100.00
48563;BME280;34981;49.104;11.396;2023-03-22T07:29:23;99586.31;;;12.45;100.00
48563;BME280;34981;49.104;11.396;2023-03-22T07:31:50;99601.44;;;12.88;100.00
48563;BME280;34981;49.104;11.396;2023-03-22T07:34:25;99568.03;;;12.90;100.00
48563;BME280;34981;49.104;11.396;2023-03-22T07:37:13;99540.00;;;13.18;100.00
48563;BME280;34981;49.104;11.396;2023-03-22T07:39:40;99556.19;;;14.00;100.00
48563;BME280;34981;49.104;11.396;2023-03-22T07:42:08;99486.56;;;13.68;100.00
48563;BME280;34981;49.104;11.396;2023-03-22T07:44:35;99461.25;;;13.89;100.00
48563;BME280;34981;49.104;11.396;2023-03-22T07:47:08;99424.66;;;13.99;100.00
48563;BME280;34981;49.104;11.396;2023-03-22T07:49:41;99350.59;;;13.87;100.00
48563;BME280;34981;49.104;11.396;2023-03-22T07:52:14;99317.50;;;13.85;100.00
48563;BME280;34981;49.104;11.396;2023-03-22T07:54:41;99261.34;;;13.74;100.00
48563;BME280;34981;49.104;11.396;2023-03-22T07:57:08;99235.34;;;13.86;100.00
48563;BME280;34981;49.104;11.396;2023-03-22T07:59:42;99220.28;;;14.10;100.00
48563;BME280;34981;49.104;11.396;2023-03-22T08:02:10;99201.47;;;14.35;100.00
48563;BME280;34981;49.104;11.396;2023-03-22T08:04:44;99144.03;;;14.33;100.00
48563;BME280;34981;49.104;11.396;2023-03-22T08:07:19;99126.19;;;14.95;100.00
48563;BME280;34981;49.104;11.396;2023-03-22T08:09:46;99066.34;;;15.21;100.00
48563;BME280;34981;49.104;11.396;2023-03-22T08:12:13;99003.25;;;15.14;100.00
48563;BME280;34981;49.104;11.396;2023-03-22T08:14:42;98956.03;;;15.22;100.00
48563;BME280;34981;49.104;11.396;2023-03-22T08:17:17;98847.88;;;15.20;100.00
48563;BME280;34981;49.104;11.396;2023-03-22T08:19:44;98807.41;;;15.37;100.00
48563;BME280;34981;49.104;11.396;2023-03-22T08:22:17;98758.44;;;15.20;100.00
48563;BME280;34981;49.104;11.396;2023-03-22T08:25:07;98688.69;;;15.15;100.00
48563;BME280;34981;49.104;11.396;2023-03-22T08:27:37;98641.28;;;15.60;100.00
48563;BME280;34981;49.104;11.396;2023-03-22T08:30:04;98547.81;;;15.15;100.00
48563;BME280;34981;49.104;11.396;2023-03-22T08:32:32;98475.13;;;15.01;100.00
48563;BME280;34981;49.104;11.396;2023-03-22T08:34:59;98448.22;;;15.34;100.00
48563;BME280;34981;49.104;11.396;2023-03-22T08:37:26;98354.97;;;15.47;100.00
48563;BME280;34981;49.104;11.396;2023-03-22T08:39:53;98351.47;;;15.91;100.00
48563;BME280;34981;49.104;11.396;2023-03-22T08:42:35;98222.25;;;15.85;100.00
48563;BME280;34981;49.104;11.396;2023-03-22T08:45:03;98078.66;;;15.40;100.00
48563;BME280;34981;49.104;11.396;2023-03-22T08:47:32;97904.75;;;14.50;100.00
48563;BME280;34981;49.104;11.396;2023-03-22T08:50:02;97782.25;;;14.37;100.00
48563;BME280;34981;49.104;11.396;2023-03-22T08:52:42;97708.63;;;14.35;100.00
48563;BME280;34981;49.104;11.396;2023-03-22T08:55:38;97706.91;;;14.68;100.00
48563;BME280;34981;49.104;11.396;2023-03-22T08:58:13;97715.66;;;15.02;100.00
48563;BME280;34981;49.104;11.396;2023-03-22T09:00:41;97572.53;;;14.57;100.00
48563;BME280;34981;49.104;11.396;2023-03-22T09:03:30;97580.22;;;14.97;100.00
48563;BME280;34981;49.104;11.396;2023-03-22T09:05:57;97544.44;;;14.95;100.00
48563;BME280;34981;49.104;11.396;2023-03-22T09:08:28;97491.56;;;14.55;100.00
48563;BME280;34981;49.104;11.396;2023-03-22T09:11:03;97408.75;;;14.54;100.00
48563;BME280;34981;49.104;11.396;2023-03-22T09:13:34;97368.22;;;14.59;100.00
48563;BME280;34981;49.104;11.396;2023-03-22T09:16:03;97332.34;;;14.79;100.00
48563;BME280;34981;49.104;11.396;2023-03-22T09:18:32;97186.84;;;14.44;100.00
48563;BME280;34981;49.104;11.396;2023-03-22T09:21:02;97131.72;;;14.60;100.00
48563;BME280;34981;49.104;11.396;2023-03-22T09:23:50;97023.94;;;14.37;100.00
48563;BME280;34981;49.104;11.396;2023-03-22T09:26:22;97022.09;;;14.58;100.00
48563;BME280;34981;49.104;11.396;2023-03-22T09:28:51;96994.78;;;14.79;100.00
48563;BME280;34981;49.104;11.396;2023-03-22T09:31:18;96916.56;;;14.68;100.00
48563;BME280;34981;49.104;11.396;2023-03-22T09:33:52;96895.69;;;14.78;100.00
48563;BME280;34981;49.104;11.396;2023-03-22T09:36:19;96762.06;;;14.59;100.00
48563;BME280;34981;49.104;11.396;2023-03-22T09:38:46;96751.19;;;14.69;100.00
48563;BME280;34981;49.104;11.396;2023-03-22T09:41:23;96667.63;;;14.58;100.00
48563;BME280;34981;49.104;11.396;2023-03-22T09:43:54;96605.91;;;14.65;100.00
48563;BME280;34981;49.104;11.396;2023-03-22T09:46:41;96580.69;;;14.74;100.00
48563;BME280;34981;49.104;11.396;2023-03-22T09:49:15;96496.25;;;14.72;100.00
48563;BME280;34981;49.104;11.396;2023-03-22T09:51:51;96468.13;;;14.68;100.00
48563;BME280;34981;49.104;11.396;2023-03-22T09:54:19;96458.44;;;14.96;100.00
48563;BME280;34981;49.104;11.396;2023-03-22T09:57:26;96400.16;;;15.04;100.00
48563;BME280;34981;49.104;11.396;2023-03-22T10:02:30;96351.75;;;15.21;100.00
48563;BME280;34981;49.104;11.396;2023-03-22T10:05:08;96420.47;;;15.54;100.00
48563;BME280;34981;49.104;11.396;2023-03-22T10:10:18;96285.13;;;15.20;100.00
48563;BME280;34981;49.104;11.396;2023-03-22T10:18:07;96261.59;;;15.95;100.00
48563;BME280;34981;49.104;11.396;2023-03-22T10:20:38;96155.47;;;16.16;100.00
48563;BME280;34981;49.104;11.396;2023-03-22T10:23:10;96092.88;;;15.85;100.00
48563;BME280;34981;49.104;11.396;2023-03-22T10:25:38;96030.91;;;15.78;100.00
48563;BME280;34981;49.104;11.396;2023-03-22T10:28:10;95961.25;;;15.65;100.00
48563;BME280;34981;49.104;11.396;2023-03-22T10:30:39;95880.13;;;15.28;100.00
48563;BME280;34981;49.104;11.396;2023-03-22T10:33:12;95905.03;;;15.57;100.00
48563;BME280;34981;49.104;11.396;2023-03-22T10:35:40;95859.47;;;15.73;100.00
48563;BME280;34981;49.104;11.396;2023-03-22T10:38:08;95830.38;;;15.51;100.00
48563;BME280;34981;49.104;11.396;2023-03-22T10:40:40;95732.06;;;15.37;100.00
48563;BME280;34981;49.104;11.396;2023-03-22T10:43:17;95703.88;;;15.02;100.00
48563;BME280;34981;49.104;11.396;2023-03-22T10:45:45;95782.97;;;15.76;100.00
48563;BME280;34981;49.104;11.396;2023-03-22T10:50:47;95662.34;;;15.65;100.00
48563;BME280;34981;49.104;11.396;2023-03-22T10:55:56;95526.66;;;15.30;100.00
48563;BME280;34981;49.104;11.396;2023-03-22T10:58:32;95522.72;;;15.58;100.00
48563;BME280;34981;49.104;11.396;2023-03-22T11:01:04;95488.03;;;15.69;100.00
48563;BME280;34981;49.104;11.396;2023-03-22T11:03:40;95521.88;;;15.89;100.00
48563;BME280;34981;49.104;11.396;2023-03-22T11:08:48;95485.69;;;15.85;100.00
48563;BME280;34981;49.104;11.396;2023-03-22T11:11:27;95436.91;;;15.85;100.00
48563;BME280;34981;49.104;11.396;2023-03-22T11:13:58;95389.97;;;15.19;100.00
48563;BME280;34981;49.104;11.396;2023-03-22T11:16:26;95419.22;;;15.48;100.00
48563;BME280;34981;49.104;11.396;2023-03-22T11:18:54;95443.56;;;15.70;100.00
48563;BME280;34981;49.104;11.396;2023-03-22T11:21:23;95446.69;;;15.55;100.00
48563;BME280;34981;49.104;11.396;2023-03-22T11:23:53;95463.28;;;15.71;100.00
48563;BME280;34981;49.104;11.396;2023-03-22T11:26:26;95382.38;;;15.38;100.00
48563;BME280;34981;49.104;11.396;2023-03-22T11:28:59;95434.91;;;15.60;100.00
48563;BME280;34981;49.104;11.396;2023-03-22T11:31:28;95459.63;;;15.67;100.00
48563;BME280;34981;49.104;11.396;2023-03-22T11:34:15;95439.44;;;15.11;100.00
48563;BME280;34981;49.104;11.396;2023-03-22T11:36:43;95489.44;;;15.67;100.00
48563;BME280;34981;49.104;11.396;2023-03-22T11:39:11;95442.75;;;15.70;100.00
48563;BME280;34981;49.104;11.396;2023-03-22T11:41:38;95456.56;;;15.60;100.00
48563;BME280;34981;49.104;11.396;2023-03-22T11:44:10;95513.03;;;15.66;100.00
48563;BME280;34981;49.104;11.396;2023-03-22T11:46:38;95470.81;;;15.74;100.00
48563;BME280;34981;49.104;11.396;2023-03-22T11:49:06;95493.03;;;15.00;100.00
48563;BME280;34981;49.104;11.396;2023-03-22T11:51:38;95573.72;;;14.98;100.00
48563;BME280;34981;49.104;11.396;2023-03-22T11:56:52;95615.00;;;15.40;100.00
48563;BME280;34981;49.104;11.396;2023-03-22T11:59:24;95623.19;;;15.26;100.00
48563;BME280;34981;49.104;11.396;2023-03-22T12:04:38;95555.66;;;15.07;100.00
48563;BME280;34981;49.104;11.396;2023-03-22T12:07:13;95542.31;;;14.89;100.00
48563;BME280;34981;49.104;11.396;2023-03-22T12:09:42;95597.06;;;15.30;100.00
48563;BME280;34981;49.104;11.396;2023-03-22T12:12:15;95570.66;;;15.13;100.00
48563;BME280;34981;49.104;11.396;2023-03-22T12:17:35;95522.72;;;15.98;100.00
48563;BME280;34981;49.104;11.396;2023-03-22T12:22:36;95448.91;;;16.18;100.00
48563;BME280;34981;49.104;11.396;2023-03-22T12:25:15;95316.19;;;15.96;100.00
48563;BME280;34981;49.104;11.396;2023-03-22T12:27:44;95283.69;;;16.13;100.00
48563;BME280;34981;49.104;11.396;2023-03-22T12:30:59;95207.13;;;15.99;100.00
48563;BME280;34981;49.104;11.396;2023-03-22T12:35:46;95119.94;;;15.88;100.00
48563;BME280;34981;49.104;11.396;2023-03-22T12:40:47;95050.16;;;15.77;100.00
48563;BME280;34981;49.104;11.396;2023-03-22T12:43:26;95055.63;;;16.06;100.00
48563;BME280;34981;49.104;11.396;2023-03-22T12:46:00;95065.94;;;16.21;100.00
48563;BME280;34981;49.104;11.396;2023-03-22T12:51:01;95046.56;;;16.61;100.00
48563;BME280;34981;49.104;11.396;2023-03-22T12:53:33;94928.81;;;16.32;100.00
48563;BME280;34981;49.104;11.396;2023-03-22T12:56:00;94931.84;;;16.52;100.00
48563;BME280;34981;49.104;11.396;2023-03-22T12:58:28;94860.56;;;16.10;100.00
48563;BME280;34981;49.104;11.396;2023-03-22T13:00:59;94765.47;;;15.94;100.00
48563;BME280;34981;49.104;11.396;2023-03-22T13:03:38;94707.59;;;15.99;100.00
48563;BME280;34981;49.104;11.396;2023-03-22T13:09:55;94871.38;;;15.89;100.00
48563;BME280;34981;49.104;11.396;2023-03-22T13:20:33;95126.25;;;16.10;100.00
48563;BME280;34981;49.104;11.396;2023-03-22T13:30:21;95086.84;;;16.12;100.00
48563;BME280;34981;49.104;11.396;2023-03-22T13:33:35;95051.31;;;16.05;100.00
48563;BME280;34981;49.104;11.396;2023-03-22T13:35:50;95036.81;;;16.01;100.00
48563;BME280;34981;49.104;11.396;2023-03-22T13:38:21;95036.09;;;16.21;100.00
48563;BME280;34981;49.104;11.396;2023-03-22T13:43:26;94995.41;;;15.54;100.00
48563;BME280;34981;49.104;11.396;2023-03-22T13:50:54;94948.06;;;15.51;100.00
48563;BME280;34981;49.104;11.396;2023-03-22T13:53:26;94926.69;;;15.58;100.00
48563;BME280;34981;49.104;11.396;2023-03-22T13:56:00;94917.09;;;15.70;100.00
48563;BME280;34981;49.104;11.396;2023-03-22T14:01:05;94884.34;;;15.45;100.00
48563;BME280;34981;49.104;11.396;2023-03-22T14:03:39;94851.97;;;15.49;100.00
48563;BME280;34981;49.104;11.396;2023-03-22T14:06:13;94819.72;;;15.65;100.00
48563;BME280;34981;49.104;11.396;2023-03-22T14:08:41;94777.06;;;15.62;100.00
48563;BME280;34981;49.104;11.396;2023-03-22T14:13:44;94751.22;;;15.85;100.00
48563;BME280;34981;49.104;11.396;2023-03-22T14:16:14;94725.84;;;15.69;100.00
48563;BME280;34981;49.104;11.396;2023-03-22T14:18:45;94690.81;;;15.64;100.00
48563;BME280;34981;49.104;11.396;2023-03-22T14:21:24;94677.66;;;15.74;100.00
48563;BME280;34981;49.104;11.396;2023-03-22T14:23:55;94649.06;;;15.65;100.00
48563;BME280;34981;49.104;11.396;2023-03-22T14:26:30;94605.59;;;15.61;100.00
48563;BME280;34981;49.104;11.396;2023-03-22T14:29:16;94572.34;;;15.73;100.00
48563;BME280;34981;49.104;11.396;2023-03-22T14:31:43;94532.56;;;15.65;100.00
48563;BME280;34981;49.104;11.396;2023-03-22T14:34:11;94500.78;;;15.74;100.00
48563;BME280;34981;49.104;11.396;2023-03-22T14:36:40;94466.91;;;15.68;100.00
48563;BME280;34981;49.104;11.396;2023-03-22T14:39:11;94442.75;;;15.63;100.00
48563;BME280;34981;49.104;11.396;2023-03-22T14:41:59;94423.72;;;15.38;100.00
48563;BME280;34981;49.104;11.396;2023-03-22T14:44:26;94415.59;;;15.50;100.00
48563;BME280;34981;49.104;11.396;2023-03-22T14:47:00;94418.19;;;15.35;100.00
48563;BME280;34981;49.104;11.396;2023-03-22T14:49:30;94398.94;;;15.48;100.00